KOWB

Owensboro-Daviess County Regional Airport

Owensboro, Kentucky, USA
METAR KOWB 190656Z AUTO 20007KT 10SM CLR M08/M12 A3026 RMK AO2 SLP259 T10781122
Observed Flight Rules
Jan-19 @ 06:56 UTC (26 minutes ago) Visual Flight Rules
Wind Visibility Clouds
200° at 7 knots 10 miles
  • Clear skies
Temperatures Readings
Current -8°C / 18°F
Dewpoint -12°C / 10°F
Humidity 73%
Altimeter 30.26" Hg
Pressure 1025.9 hPa
Elevation 124
METAR KOWB 190656Z AUTO 20007KT 10SM CLR M08/M12 A3026 RMK AO2 SLP259 T10781122
Observed Flight Rules
Jan-19 @ 06:56 UTC
(26 minutes ago)
VFR
Wind Visibility
200° at 7 knots 10 miles
Clouds
  • Clear skies
Temperature Dewpoint
-8°C / 18°F -12°C / 10°F
Humidity Altimeter Pressure
73% 30.26" Hg 1025.9 hPa